Chefornak, Alaska
Current Conditions -  °F | °C
As of 2:56 AM on Wednesday 28 Jan 2015 (Local Time) from PAKI Reporting Station
Haze Haze  
Wind Chill: -23°   Ceiling: Unl
Heat Index:   Visibility: 5mi
Dew Point: -3°   Wind: 25mph
Humidity: 83%   Direction: 10°N
Pressure: 30.05"   Gusts: 31mph
Location:  60.16°N, 164.27°W
Report Text: PAKI 281156Z AUTO 01022G27KT 5SM BR FEW080 M17/M19 A3005 RMK AO2 TSNO 53019 60000 T11721194 11172 21183 PK WND 36030/1108 SLP178 $
Loading
Personal Weather Stations






























Interactive Weather Map New forecast layout! Learn more

10-Day Weather Forecast

Advertisements
Track Severe Weather on mobile